Time;durP1;ratioP1;P1;durP2;ratioP2;P2;SDS_P1;SDS_P2;PMS_P1;PMS_P2;Temp;Humidity;BMP_temperature;BMP_pressure;BME280_temperature;BME280_humidity;BME280_pressure;Samples;Min_cycle;Max_cycle;Signal;HPM_P1;HPM_P2
2022/12/29 00:01:18;;;;;;;42.33;28.80;;;;;;;5.57;58.54;94728.28;5005549;28;20784;-75
2022/12/29 00:03:47;;;;;;;43.45;29.13;;;;;;;5.56;58.62;94718.78;4987789;28;20022;-74
2022/12/29 00:06:13;;;;;;;44.00;29.77;;;;;;;5.67;58.62;94741.53;4988923;28;20045;-74
2022/12/29 00:08:41;;;;;;;38.97;27.52;;;;;;;5.68;58.31;94740.44;4989254;28;20056;-74
2022/12/29 00:11:07;;;;;;;39.22;27.55;;;;;;;5.68;58.64;94745.72;4992460;28;20508;-75
2022/12/29 00:16:17;;;;;;;38.47;29.17;;;;;;;5.61;58.61;94732.00;4993503;28;20048;-74
2022/12/29 00:18:42;;;;;;;40.83;28.55;;;;;;;5.59;58.65;94731.44;4991720;28;20495;-75
2022/12/29 00:35:09;;;;;;;46.90;29.67;;;;;;;5.68;57.47;94729.88;4993412;28;20085;-75
2022/12/29 00:45:56;;;;;;;181.13;93.30;;;;;;;5.98;57.26;94756.38;4991353;28;20032;-74
2022/12/29 00:51:06;;;;;;;150.27;79.13;;;;;;;5.70;58.63;94775.31;4984759;28;20105;-75
2022/12/29 00:53:32;;;;;;;72.85;44.83;;;;;;;5.69;58.65;94757.06;4992618;28;20530;-75
2022/12/29 00:55:58;;;;;;;55.70;36.35;;;;;;;5.82;58.04;94765.28;4991167;28;20400;-74
2022/12/29 00:58:23;;;;;;;143.27;76.65;;;;;;;5.87;57.86;94765.31;4991449;28;20065;-74
2022/12/29 01:00:48;;;;;;;101.25;57.85;;;;;;;5.74;58.15;94765.81;4991827;28;20029;-76
2022/12/29 01:03:14;;;;;;;52.45;35.20;;;;;;;5.77;58.02;94753.94;4991470;28;20025;-75
2022/12/29 01:05:39;;;;;;;45.13;30.42;;;;;;;5.72;58.09;94752.09;4993523;28;20029;-76
2022/12/29 01:08:04;;;;;;;50.42;35.58;;;;;;;5.74;58.31;94773.72;4990967;28;20111;-77
2022/12/29 01:10:30;;;;;;;88.75;51.17;;;;;;;5.72;58.40;94760.00;4992324;28;20508;-74
2022/12/29 01:12:55;;;;;;;74.60;47.42;;;;;;;5.51;58.24;94742.50;4989565;28;20706;-75
2022/12/29 01:15:21;;;;;;;60.15;38.33;;;;;;;5.72;58.13;94764.50;4988503;28;20052;-76
2022/12/29 01:17:46;;;;;;;48.10;33.63;;;;;;;5.63;58.03;94744.94;4991100;28;20034;-76
2022/12/29 01:20:12;;;;;;;46.95;32.05;;;;;;;5.51;58.23;94743.31;4989384;28;20121;-75
2022/12/29 01:22:38;;;;;;;46.20;31.38;;;;;;;5.51;58.40;94748.59;4991696;28;20109;-74
2022/12/29 01:25:04;;;;;;;52.97;35.60;;;;;;;5.44;58.69;94734.03;4990746;28;20072;-76
2022/12/29 01:27:30;;;;;;;45.42;33.35;;;;;;;5.56;58.11;94737.25;4991998;28;20077;-76
2022/12/29 01:29:55;;;;;;;43.33;30.80;;;;;;;5.56;57.95;94738.03;4990123;28;20038;-77
2022/12/29 01:32:20;;;;;;;51.20;37.72;;;;;;;5.51;58.31;94739.88;4989750;28;20030;-76
2022/12/29 01:34:46;;;;;;;52.95;34.75;;;;;;;5.54;58.76;94747.25;5005775;28;20080;-73
2022/12/29 01:37:11;;;;;;;54.97;38.40;;;;;;;5.49;58.91;94740.13;4992160;28;20566;-76
2022/12/29 01:39:36;;;;;;;53.65;35.55;;;;;;;5.33;58.70;94703.41;4991673;28;20037;-76
2022/12/29 01:42:02;;;;;;;60.97;42.70;;;;;;;5.47;58.80;94731.69;4990074;28;20422;-76
2022/12/29 01:45:10;;;;;;;53.33;35.00;;;;;;;5.53;58.77;94735.09;4992199;28;20038;-77
2022/12/29 01:47:40;;;;;;;52.67;35.25;;;;;;;5.42;59.22;94731.66;4956012;28;20304;-77
2022/12/29 01:50:30;;;;;;;56.10;37.58;;;;;;;5.37;59.39;94728.22;4934476;28;20046;-77
2022/12/29 01:53:06;;;;;;;52.67;36.70;;;;;;;5.17;59.48;94693.84;4967372;28;20050;-76
2022/12/29 01:55:38;;;;;;;53.08;35.55;;;;;;;5.35;59.47;94714.47;4989182;28;20451;-76
2022/12/29 01:58:05;;;;;;;53.28;38.55;;;;;;;5.52;59.41;94734.34;4994243;28;20692;-75
2022/12/29 02:00:31;;;;;;;49.30;34.72;;;;;;;5.68;59.14;94721.97;4994434;28;20026;-75
2022/12/29 02:02:56;;;;;;;50.55;34.88;;;;;;;5.65;59.06;94727.78;4993048;28;20057;-74
2022/12/29 02:05:38;;;;;;;47.38;33.22;;;;;;;5.52;59.38;94726.44;4996268;28;20030;-75
2022/12/29 02:08:04;;;;;;;49.72;34.00;;;;;;;5.54;59.57;94720.88;4994796;28;20041;-75
2022/12/29 02:10:32;;;;;;;45.75;30.88;;;;;;;5.63;59.50;94715.91;4993892;28;20050;-76
2022/12/29 02:12:58;;;;;;;44.95;31.85;;;;;;;5.62;59.67;94707.19;4993302;28;20031;-76
2022/12/29 02:15:32;;;;;;;42.67;29.90;;;;;;;5.63;58.78;94702.72;4991810;28;20060;-76
2022/12/29 02:18:13;;;;;;;44.50;30.55;;;;;;;5.73;58.94;94708.00;4995690;28;20042;-75
2022/12/29 02:21:11;;;;;;;40.75;29.48;;;;;;;5.69;59.27;94709.56;4992409;28;20041;-76
2022/12/29 02:24:18;;;;;;;40.10;29.35;;;;;;;5.69;59.19;94705.09;4959973;28;20550;-76
2022/12/29 02:27:06;;;;;;;41.90;30.35;;;;;;;5.66;59.09;94696.91;4984490;28;20705;-76
2022/12/29 02:29:52;;;;;;;45.05;31.67;;;;;;;5.77;58.71;94704.59;4993847;28;20042;-75
2022/12/29 02:32:30;;;;;;;44.97;31.05;;;;;;;5.72;59.10;94707.22;5009139;28;20365;-75
2022/12/29 02:35:21;;;;;;;50.53;32.78;;;;;;;5.73;59.19;94705.34;4995049;28;20033;-76
2022/12/29 02:38:08;;;;;;;44.30;31.90;;;;;;;5.74;59.41;94715.66;4988311;28;20034;-76
2022/12/29 02:40:53;;;;;;;51.42;33.17;;;;;;;5.85;58.73;94712.00;4992642;28;20050;-76
2022/12/29 02:43:36;;;;;;;45.50;33.15;;;;;;;5.83;58.79;94708.81;4995550;28;20052;-75
2022/12/29 02:46:28;;;;;;;48.33;34.25;;;;;;;5.76;58.63;94713.56;5011851;28;20092;-75
2022/12/29 02:49:13;;;;;;;51.00;34.28;;;;;;;5.94;58.42;94715.69;4993501;28;20425;-75
2022/12/29 02:51:50;;;;;;;52.45;36.47;;;;;;;5.90;57.95;94696.16;4993502;28;20080;-75
2022/12/29 02:57:02;;;;;;;47.63;34.05;;;;;;;5.59;59.07;94686.59;4992562;28;20041;-76
2022/12/29 02:59:28;;;;;;;44.75;33.03;;;;;;;5.73;59.10;94700.88;4995407;28;20034;-75
2022/12/29 03:02:31;;;;;;;44.45;32.72;;;;;;;5.83;58.48;94700.09;4992389;28;20160;-75
2022/12/29 03:05:32;;;;;;;49.17;31.40;;;;;;;5.75;59.18;94695.34;5008324;28;20441;-76
2022/12/29 03:08:11;;;;;;;48.33;32.25;;;;;;;5.64;59.13;94683.94;4996790;28;20525;-76
2022/12/29 03:10:52;;;;;;;42.22;30.35;;;;;;;5.55;59.50;94693.44;4993404;28;20037;-75
2022/12/29 03:16:20;;;;;;;47.45;32.50;;;;;;;5.57;59.36;94693.97;4992147;28;20052;-76
2022/12/29 03:18:57;;;;;;;41.67;31.75;;;;;;;5.59;59.06;94686.59;4993741;28;20224;-76
2022/12/29 03:24:20;;;;;;;44.45;31.30;;;;;;;5.49;58.98;94681.28;4994005;28;20085;-75
2022/12/29 03:26:47;;;;;;;41.38;29.73;;;;;;;5.43;58.56;94675.19;4992837;28;20476;-75
2022/12/29 03:29:16;;;;;;;44.95;30.40;;;;;;;5.45;58.69;94688.94;4991405;28;20125;-75
2022/12/29 03:31:43;;;;;;;44.78;30.83;;;;;;;5.52;57.84;94696.59;4992323;28;20535;-75
2022/12/29 03:34:10;;;;;;;41.22;29.13;;;;;;;5.37;57.89;94691.28;4995195;28;20038;-75
2022/12/29 03:36:48;;;;;;;40.45;30.50;;;;;;;5.33;57.33;94690.22;4994238;28;20425;-77
2022/12/29 03:39:14;;;;;;;42.58;30.05;;;;;;;5.18;57.90;94685.69;4992577;28;20042;-76
2022/12/29 03:41:44;;;;;;;49.55;31.55;;;;;;;5.43;57.12;94698.94;5008599;28;20037;-76
2022/12/29 03:44:11;;;;;;;45.60;31.98;;;;;;;5.22;57.36;94672.75;4994119;28;20108;-76
2022/12/29 03:46:37;;;;;;;44.83;30.48;;;;;;;5.33;56.54;94679.66;4992024;28;20037;-76
2022/12/29 03:49:02;;;;;;;46.88;32.78;;;;;;;5.29;56.52;94686.47;4993613;28;20379;-75
2022/12/29 03:51:28;;;;;;;42.67;32.03;;;;;;;5.04;57.48;94692.47;4992993;28;22192;-76
2022/12/29 03:53:53;;;;;;;42.08;30.38;;;;;;;4.87;57.66;94689.22;4993150;28;20042;-75
2022/12/29 03:56:18;;;;;;;40.30;30.13;;;;;;;4.93;57.46;94701.38;4988159;28;20042;-76
2022/12/29 03:58:44;;;;;;;46.83;31.63;;;;;;;4.91;57.12;94712.16;4991839;28;20496;-75
2022/12/29 04:01:09;;;;;;;43.80;30.85;;;;;;;4.87;57.36;94713.72;4991478;28;20505;-76
2022/12/29 04:03:35;;;;;;;43.60;32.60;;;;;;;4.79;57.47;94713.41;4993375;28;20311;-75
2022/12/29 04:06:00;;;;;;;45.67;29.70;;;;;;;4.81;57.60;94709.47;4990289;28;20034;-75
2022/12/29 04:08:25;;;;;;;42.63;30.67;;;;;;;4.71;57.06;94709.41;4992666;28;20048;-75
2022/12/29 04:10:51;;;;;;;43.20;29.80;;;;;;;4.65;57.26;94710.41;4992581;28;20079;-77
2022/12/29 04:13:16;;;;;;;42.05;30.95;;;;;;;4.57;57.57;94710.91;4991367;28;20635;-75
2022/12/29 04:15:45;;;;;;;41.33;29.85;;;;;;;4.69;57.71;94703.59;4988068;28;20052;-75
2022/12/29 04:18:11;;;;;;;41.80;28.60;;;;;;;4.60;58.04;94705.13;5006872;28;20535;-77
2022/12/29 04:23:21;;;;;;;40.97;27.65;;;;;;;4.20;57.88;94645.03;4991276;28;20184;-75
2022/12/29 04:25:47;;;;;;;41.15;29.05;;;;;;;4.59;57.88;94714.09;4990581;28;20437;-75
2022/12/29 04:28:13;;;;;;;39.03;27.67;;;;;;;4.54;57.83;94704.31;4989885;28;20053;-76
2022/12/29 04:30:38;;;;;;;38.90;25.95;;;;;;;4.60;57.59;94713.81;4992818;28;20753;-75
2022/12/29 04:33:04;;;;;;;36.08;25.63;;;;;;;4.44;57.73;94708.69;4991875;28;20069;-75
2022/12/29 04:35:29;;;;;;;37.95;25.23;;;;;;;4.39;57.88;94719.19;4990653;28;20097;-75
2022/12/29 04:37:55;;;;;;;34.17;23.40;;;;;;;4.48;57.91;94715.06;4991298;28;20037;-76
2022/12/29 04:40:20;;;;;;;37.05;25.27;;;;;;;4.46;57.99;94720.56;4992396;28;20560;-76
2022/12/29 04:42:45;;;;;;;31.38;22.88;;;;;;;4.45;58.07;94718.19;4993187;28;20088;-75
2022/12/29 04:45:11;;;;;;;29.30;21.67;;;;;;;4.54;58.36;94732.50;4990537;28;20034;-76
2022/12/29 04:47:36;;;;;;;29.25;22.58;;;;;;;4.56;58.41;94735.66;4993368;28;20046;-76
2022/12/29 04:50:02;;;;;;;33.72;21.95;;;;;;;4.51;58.25;94731.13;4991075;28;20496;-75
2022/12/29 04:52:27;;;;;;;35.70;24.88;;;;;;;4.42;58.61;94718.69;4991995;28;20045;-76
2022/12/29 04:54:53;;;;;;;33.40;23.90;;;;;;;4.55;58.87;94739.34;4991324;28;20041;-76
2022/12/29 04:57:18;;;;;;;34.10;23.92;;;;;;;4.51;59.02;94733.78;4989501;28;20026;-75
2022/12/29 04:59:43;;;;;;;37.40;26.85;;;;;;;4.60;59.36;94747.28;4991037;28;20043;-76
2022/12/29 05:02:09;;;;;;;39.13;26.73;;;;;;;4.49;59.24;94735.88;4990849;28;20042;-76
2022/12/29 05:04:34;;;;;;;37.97;27.27;;;;;;;4.57;59.64;94734.59;4991402;28;20492;-75
2022/12/29 05:07:00;;;;;;;34.78;25.88;;;;;;;4.69;59.04;94725.50;4993571;28;20033;-74
2022/12/29 05:09:25;;;;;;;36.97;25.80;;;;;;;4.83;59.44;94751.38;4986173;28;20495;-75
2022/12/29 05:11:50;;;;;;;42.03;26.42;;;;;;;4.74;59.50;94747.66;4991900;28;20062;-75
2022/12/29 05:14:16;;;;;;;40.72;29.10;;;;;;;4.67;59.97;94732.84;4989028;28;20052;-74
2022/12/29 05:16:41;;;;;;;38.35;28.17;;;;;;;4.76;60.31;94754.25;4991379;28;20201;-76
2022/12/29 05:19:07;;;;;;;40.90;28.83;;;;;;;4.74;60.27;94737.09;5007987;28;20022;-75
2022/12/29 05:21:32;;;;;;;41.88;30.65;;;;;;;4.71;60.99;94748.94;4991553;28;20030;-75
2022/12/29 05:23:57;;;;;;;47.00;31.73;;;;;;;4.75;61.05;94750.00;4990966;28;20034;-74
2022/12/29 05:26:23;;;;;;;47.92;32.50;;;;;;;4.76;61.11;94754.25;4990091;28;20579;-76
2022/12/29 05:28:48;;;;;;;45.97;31.00;;;;;;;4.67;61.55;94742.59;4991109;28;20065;-75
2022/12/29 05:31:14;;;;;;;47.17;33.40;;;;;;;4.82;61.67;94749.78;4994951;28;20224;-75
2022/12/29 05:33:39;;;;;;;49.80;35.05;;;;;;;4.80;61.61;94747.41;4994068;28;20113;-75
2022/12/29 05:36:06;;;;;;;49.17;35.92;;;;;;;4.83;61.76;94746.13;4996246;28;20038;-75
2022/12/29 05:38:32;;;;;;;55.70;36.60;;;;;;;4.78;61.78;94743.44;4992367;28;20038;-74
2022/12/29 05:40:57;;;;;;;52.50;35.58;;;;;;;4.71;61.82;94733.13;4995158;28;20034;-74
2022/12/29 05:43:22;;;;;;;50.72;36.95;;;;;;;4.65;62.10;94742.03;4995364;28;20461;-75
2022/12/29 05:45:49;;;;;;;50.33;37.28;;;;;;;4.70;62.02;94742.06;4996248;28;20041;-75
2022/12/29 05:48:14;;;;;;;50.58;36.85;;;;;;;4.82;61.92;94765.59;4994343;28;20448;-75
2022/12/29 05:50:40;;;;;;;51.53;36.15;;;;;;;4.90;61.77;94746.69;4992484;28;20333;-74
2022/12/29 05:53:05;;;;;;;48.72;35.53;;;;;;;4.83;61.61;94751.38;4994037;28;20030;-75
2022/12/29 05:55:31;;;;;;;47.67;32.22;;;;;;;4.82;61.64;94747.16;4994470;28;20087;-76
2022/12/29 05:57:56;;;;;;;50.42;34.30;;;;;;;4.83;61.50;94746.13;4994144;28;20069;-75
2022/12/29 06:00:22;;;;;;;50.70;33.45;;;;;;;4.75;61.97;94755.28;4993963;28;20022;-75
2022/12/29 06:02:47;;;;;;;44.83;32.78;;;;;;;4.75;61.76;94744.72;4992375;28;20030;-75
2022/12/29 06:05:12;;;;;;;43.28;30.65;;;;;;;4.78;61.55;94752.16;4993029;28;20031;-75
2022/12/29 06:07:38;;;;;;;53.80;34.97;;;;;;;4.88;61.52;94765.41;4993766;28;20034;-75
2022/12/29 06:10:05;;;;;;;51.33;35.10;;;;;;;5.14;60.27;94761.84;4992748;28;20460;-74
2022/12/29 06:12:30;;;;;;;53.80;36.72;;;;;;;5.03;60.43;94751.53;4985607;28;20066;-75
2022/12/29 06:14:56;;;;;;;56.20;37.50;;;;;;;4.94;61.07;94759.09;4991425;28;20472;-73
2022/12/29 06:17:21;;;;;;;53.45;36.22;;;;;;;4.84;61.05;94751.16;4990878;28;20041;-75
2022/12/29 06:19:47;;;;;;;45.30;30.95;;;;;;;4.95;61.46;94768.59;4992152;28;20042;-77
2022/12/29 06:22:13;;;;;;;41.55;28.60;;;;;;;4.91;61.70;94777.25;5010568;28;20883;-74
2022/12/29 06:24:38;;;;;;;42.85;29.65;;;;;;;4.83;61.42;94751.38;4995748;28;20382;-76
2022/12/29 06:27:03;;;;;;;43.08;31.65;;;;;;;4.96;61.56;94767.56;4989849;28;20149;-76
2022/12/29 06:29:29;;;;;;;45.20;28.38;;;;;;;4.96;61.46;94757.00;4991635;28;20096;-77
2022/12/29 06:31:57;;;;;;;39.50;30.63;;;;;;;4.68;62.61;94755.50;4993360;28;20046;-75
2022/12/29 06:34:23;;;;;;;39.20;28.50;;;;;;;4.96;61.72;94764.91;4986813;28;20040;-75
2022/12/29 06:36:48;;;;;;;39.92;28.20;;;;;;;5.12;61.08;94781.63;4985887;28;20026;-75
2022/12/29 06:39:14;;;;;;;41.05;27.80;;;;;;;5.00;61.66;94757.28;4987917;28;20022;-76
2022/12/29 06:41:39;;;;;;;44.03;30.83;;;;;;;5.12;61.06;94777.16;4984875;28;20671;-76
2022/12/29 06:44:05;;;;;;;42.20;29.60;;;;;;;5.24;61.01;94786.69;4985545;28;21564;-75
2022/12/29 06:46:30;;;;;;;55.05;35.40;;;;;;;5.11;61.10;94774.75;4984235;28;20060;-76
2022/12/29 06:48:55;;;;;;;68.55;41.65;;;;;;;5.19;61.61;94781.41;4985067;28;20021;-76
2022/12/29 06:51:21;;;;;;;43.78;29.95;;;;;;;5.17;61.59;94780.84;4985591;28;20397;-75
2022/12/29 06:53:46;;;;;;;42.20;31.10;;;;;;;5.39;61.02;94781.50;4985934;28;20043;-76
2022/12/29 06:56:11;;;;;;;43.33;32.15;;;;;;;5.28;61.13;94769.31;4989771;28;20038;-76
2022/12/29 06:58:37;;;;;;;42.15;32.05;;;;;;;5.29;61.30;94781.44;4986618;28;20497;-75
2022/12/29 07:01:03;;;;;;;38.85;29.02;;;;;;;5.25;61.55;94777.72;4990960;28;20017;-76
2022/12/29 07:03:29;;;;;;;41.22;29.90;;;;;;;5.31;61.74;94777.50;4989214;28;20018;-76
2022/12/29 07:05:54;;;;;;;38.10;29.58;;;;;;;5.27;61.07;94762.44;4985795;28;20135;-75
2022/12/29 07:08:20;;;;;;;38.97;27.63;;;;;;;5.42;60.58;94781.00;4986834;28;20379;-75
2022/12/29 07:10:46;;;;;;;40.42;28.45;;;;;;;5.40;60.99;94777.81;4984679;28;20038;-75
2022/12/29 07:13:11;;;;;;;38.13;28.08;;;;;;;5.40;60.54;94781.25;4981602;28;20045;-75
2022/12/29 07:15:37;;;;;;;40.85;28.17;;;;;;;5.60;60.47;94785.81;4984046;28;20125;-76
2022/12/29 07:18:03;;;;;;;38.70;27.45;;;;;;;5.67;59.88;94778.47;4986093;28;20038;-75
2022/12/29 07:20:29;;;;;;;42.80;30.48;;;;;;;5.47;60.74;94776.53;4983063;28;20348;-75
2022/12/29 07:22:55;;;;;;;43.33;30.88;;;;;;;5.32;61.57;94783.59;4982449;28;20034;-75
2022/12/29 07:25:20;;;;;;;46.60;32.22;;;;;;;5.21;61.81;94779.28;4984357;28;20137;-74
2022/12/29 07:27:46;;;;;;;49.97;32.10;;;;;;;5.04;63.49;94777.59;4985035;28;20399;-75
2022/12/29 07:30:11;;;;;;;46.40;31.58;;;;;;;5.39;62.08;94781.50;4986346;28;20134;-76
2022/12/29 07:32:37;;;;;;;48.25;34.25;;;;;;;5.19;63.43;94791.97;4980928;28;20508;-75
2022/12/29 07:35:06;;;;;;;46.40;32.17;;;;;;;5.23;63.32;94788.56;4983570;28;20662;-77
2022/12/29 07:37:31;;;;;;;49.42;33.58;;;;;;;5.36;61.88;94780.16;4984772;28;20153;-75
2022/12/29 07:39:56;;;;;;;51.50;35.38;;;;;;;5.58;60.94;94775.50;4984563;28;20840;-75
2022/12/29 07:42:22;;;;;;;51.63;34.97;;;;;;;5.13;62.59;94778.75;4986424;28;20641;-75
2022/12/29 07:44:47;;;;;;;52.28;35.83;;;;;;;5.21;63.48;94784.56;4983890;28;20061;-76
2022/12/29 07:47:12;;;;;;;50.67;34.60;;;;;;;5.30;62.72;94778.56;4984707;28;20061;-75
2022/12/29 07:49:38;;;;;;;53.05;35.10;;;;;;;5.21;63.15;94774.81;4986062;28;20041;-76
2022/12/29 07:52:03;;;;;;;57.17;36.97;;;;;;;4.72;65.50;94771.59;4981349;28;20315;-74
2022/12/29 07:54:29;;;;;;;58.63;39.20;;;;;;;4.96;65.42;94799.19;4982722;28;20036;-76
2022/12/29 07:56:54;;;;;;;52.70;37.63;;;;;;;4.88;65.33;94791.75;4980544;28;20042;-75
2022/12/29 07:59:20;;;;;;;52.90;37.50;;;;;;;4.74;63.91;94753.72;4983116;28;20560;-75
2022/12/29 08:01:45;;;;;;;52.38;37.53;;;;;;;5.18;63.71;94798.28;4988758;28;20133;-74
2022/12/29 08:04:11;;;;;;;58.25;36.97;;;;;;;4.87;65.90;94799.91;4989491;28;20091;-74
2022/12/29 08:06:37;;;;;;;52.70;39.80;;;;;;;4.60;66.75;94806.03;4985108;28;20053;-75
2022/12/29 08:09:03;;;;;;;49.88;34.67;;;;;;;4.94;65.83;94803.13;4987137;28;20206;-75
2022/12/29 08:11:29;;;;;;;51.45;36.50;;;;;;;5.05;64.59;94808.22;4987993;28;20055;-76
2022/12/29 08:13:54;;;;;;;54.95;36.67;;;;;;;4.95;64.38;94807.34;4986326;28;20046;-75
2022/12/29 08:16:20;;;;;;;62.80;37.92;;;;;;;5.20;63.82;94798.81;4988614;28;20323;-75
2022/12/29 08:18:45;;;;;;;49.25;34.65;;;;;;;5.36;63.61;94795.19;4985503;28;20038;-76
2022/12/29 08:21:10;;;;;;;50.40;35.40;;;;;;;5.56;62.38;94788.19;5000757;28;20042;-75
2022/12/29 08:23:36;;;;;;;53.97;34.72;;;;;;;5.80;61.82;94800.94;4988461;28;20038;-73
2022/12/29 08:26:04;;;;;;;56.95;37.47;;;;;;;5.81;61.01;94807.81;4990236;28;20046;-73
2022/12/29 08:28:30;;;;;;;57.13;38.95;;;;;;;5.36;61.61;94784.66;4987835;28;21032;-77
2022/12/29 08:31:00;;;;;;;54.83;36.75;;;;;;;5.39;62.21;94784.94;4986018;28;20022;-75
2022/12/29 08:33:27;;;;;;;54.55;36.42;;;;;;;5.78;60.67;94782.72;4986854;28;20442;-77
2022/12/29 08:35:52;;;;;;;54.70;38.65;;;;;;;5.50;60.84;94793.69;4980529;28;20536;-75
2022/12/29 08:38:17;;;;;;;53.97;37.08;;;;;;;5.77;60.93;94789.06;4986614;28;20037;-76
2022/12/29 08:40:43;;;;;;;50.67;35.25;;;;;;;5.83;60.44;94756.31;4987293;28;20380;-75
2022/12/29 08:43:09;;;;;;;54.75;37.45;;;;;;;6.32;59.15;94791.06;4987219;28;20710;-76
2022/12/29 08:45:34;;;;;;;48.80;35.75;;;;;;;6.18;58.78;94789.19;4981082;28;20396;-75
2022/12/29 08:48:00;;;;;;;47.95;35.28;;;;;;;6.23;58.66;94773.34;4982077;28;20041;-75
2022/12/29 08:50:25;;;;;;;49.38;35.88;;;;;;;6.45;58.09;94789.78;4982543;28;20034;-73
2022/12/29 08:52:51;;;;;;;47.33;34.95;;;;;;;6.33;58.39;94789.22;4984434;28;20276;-75
2022/12/29 08:55:16;;;;;;;52.22;34.97;;;;;;;6.47;57.93;94768.34;4997340;28;20054;-76
2022/12/29 08:57:41;;;;;;;55.88;34.80;;;;;;;6.63;56.83;94769.94;4982568;28;20037;-73
2022/12/29 09:00:08;;;;;;;54.80;35.90;;;;;;;6.65;57.26;94776.53;4979343;28;20479;-76
2022/12/29 09:02:33;;;;;;;49.53;36.75;;;;;;;6.48;57.27;94762.81;4980016;28;20714;-75
2022/12/29 09:04:59;;;;;;;52.75;35.90;;;;;;;6.70;57.33;94773.13;4981135;28;20037;-75
2022/12/29 09:07:25;;;;;;;42.13;31.50;;;;;;;6.82;56.54;94773.63;4978915;28;20120;-75
2022/12/29 09:09:51;;;;;;;46.05;32.60;;;;;;;6.93;56.57;94766.47;4979600;28;20091;-76
2022/12/29 09:12:17;;;;;;;47.95;32.95;;;;;;;6.80;56.27;94770.44;4978681;28;20281;-75
2022/12/29 09:14:44;;;;;;;53.92;37.72;;;;;;;6.97;55.91;94768.31;4977457;28;20065;-76
2022/12/29 09:19:54;;;;;;;41.08;31.88;;;;;;;6.74;56.29;94753.81;4979561;28;20420;-76
2022/12/29 09:22:20;;;;;;;47.25;33.25;;;;;;;6.84;55.89;94769.69;4980653;28;20042;-75
2022/12/29 09:24:45;;;;;;;44.50;32.63;;;;;;;6.91;56.30;94768.59;4983335;28;20045;-75
2022/12/29 09:27:11;;;;;;;49.72;32.70;;;;;;;6.89;56.02;94754.84;4978990;28;20040;-76
2022/12/29 09:29:36;;;;;;;54.95;35.55;;;;;;;6.34;57.89;94765.19;4980640;28;20519;-75
2022/12/29 09:32:01;;;;;;;48.85;35.10;;;;;;;6.30;58.16;94758.03;4978884;28;20198;-76
2022/12/29 09:34:27;;;;;;;50.15;35.97;;;;;;;6.39;58.16;94759.09;4980239;28;20411;-76
2022/12/29 09:36:52;;;;;;;49.63;35.97;;;;;;;6.50;57.85;94750.13;4978006;28;20117;-75
2022/12/29 09:39:18;;;;;;;47.60;34.50;;;;;;;6.21;58.39;94756.97;4981495;28;20033;-75
2022/12/29 09:41:53;;;;;;;51.67;36.55;;;;;;;5.84;60.74;94757.91;4980555;28;20462;-76
2022/12/29 09:44:40;;;;;;;50.08;35.58;;;;;;;6.05;60.08;94750.03;4984501;28;20034;-74
2022/12/29 09:47:11;;;;;;;57.13;36.65;;;;;;;5.81;60.26;94726.78;4983224;28;20042;-75
2022/12/29 09:49:45;;;;;;;48.70;34.90;;;;;;;6.09;59.77;94745.81;4983557;28;20112;-74
2022/12/29 09:52:18;;;;;;;52.50;36.87;;;;;;;6.30;59.41;94745.63;4982353;28;20528;-75
2022/12/29 09:54:55;;;;;;;56.60;36.85;;;;;;;6.51;58.30;94741.13;4988263;28;20627;-76
2022/12/29 09:57:26;;;;;;;58.78;38.50;;;;;;;6.90;56.80;94748.50;4961213;28;20054;-76
2022/12/29 10:00:04;;;;;;;52.78;35.30;;;;;;;6.32;58.08;94717.06;4985612;28;20053;-76
2022/12/29 10:02:44;;;;;;;59.67;37.72;;;;;;;6.23;59.44;94736.34;4986730;28;20030;-77
2022/12/29 10:05:21;;;;;;;50.40;34.17;;;;;;;6.39;59.19;94732.69;4985227;28;20058;-76
2022/12/29 10:08:23;;;;;;;54.08;36.22;;;;;;;5.68;61.46;94731.72;4988235;28;20038;-77
2022/12/29 10:11:01;;;;;;;53.80;36.55;;;;;;;5.89;61.08;94726.25;4975009;28;20516;-77
2022/12/29 10:13:36;;;;;;;54.40;38.40;;;;;;;5.63;61.41;94721.19;4986992;28;20106;-75
2022/12/29 10:16:26;;;;;;;58.95;37.75;;;;;;;6.04;61.40;94725.47;4985599;28;20057;-73
2022/12/29 10:18:51;;;;;;;54.75;37.22;;;;;;;6.15;60.54;94724.44;4987677;28;20506;-74
2022/12/29 10:21:24;;;;;;;57.45;36.72;;;;;;;6.36;59.45;94722.66;4988364;28;20084;-74
2022/12/29 10:23:54;;;;;;;48.85;37.58;;;;;;;6.63;59.09;94709.94;4987583;28;20264;-74
2022/12/29 10:26:23;;;;;;;57.72;37.55;;;;;;;6.76;58.65;94698.81;4986557;28;20596;-73
2022/12/29 10:28:56;;;;;;;54.28;37.42;;;;;;;6.48;59.55;94712.59;4985767;28;20049;-73
2022/12/29 10:31:24;;;;;;;51.55;38.30;;;;;;;6.39;59.98;94695.69;4989014;28;20038;-73
2022/12/29 10:33:57;;;;;;;53.65;38.55;;;;;;;6.03;61.00;94697.47;4986010;28;20911;-75
2022/12/29 10:36:37;;;;;;;51.88;36.35;;;;;;;6.16;60.77;94696.22;4988572;28;20029;-74
2022/12/29 10:39:10;;;;;;;54.63;37.85;;;;;;;6.16;61.64;94704.16;5006399;28;20124;-77
2022/12/29 10:41:44;;;;;;;53.17;38.40;;;;;;;6.20;61.97;94703.34;4987535;28;20709;-77
2022/12/29 10:44:16;;;;;;;56.25;38.88;;;;;;;6.55;60.24;94678.78;4988702;28;20042;-77
2022/12/29 10:46:43;;;;;;;68.65;46.85;;;;;;;6.95;59.03;94679.72;4987027;28;20042;-77
2022/12/29 10:49:17;;;;;;;51.50;37.33;;;;;;;7.02;58.53;94693.47;4989057;28;20493;-76
2022/12/29 10:51:46;;;;;;;66.47;40.45;;;;;;;6.56;59.35;94692.75;4990037;28;20057;-76
2022/12/29 10:54:42;;;;;;;58.05;39.42;;;;;;;6.49;59.54;94668.47;4985952;28;20042;-75
2022/12/29 10:57:23;;;;;;;65.57;41.85;;;;;;;6.53;59.69;94688.81;4988080;28;20076;-76
2022/12/29 10:59:48;;;;;;;56.78;39.97;;;;;;;7.15;59.10;94672.50;4991444;28;20089;-75
2022/12/29 11:02:39;;;;;;;56.42;38.78;;;;;;;6.99;58.04;94652.50;4990427;28;20041;-76
2022/12/29 11:05:10;;;;;;;62.38;42.40;;;;;;;6.99;58.26;94672.84;4992012;28;20040;-76
2022/12/29 11:07:36;;;;;;;63.28;42.63;;;;;;;6.50;59.37;94664.75;4990007;28;20042;-75
2022/12/29 11:10:31;;;;;;;57.88;43.22;;;;;;;6.67;59.49;94652.03;4989492;28;20068;-76
2022/12/29 11:13:19;;;;;;;61.15;41.88;;;;;;;6.74;59.58;94660.50;4988837;28;20124;-76
2022/12/29 11:15:49;;;;;;;59.40;42.55;;;;;;;6.61;59.54;94663.66;4987220;28;20158;-77
2022/12/29 11:18:32;;;;;;;60.95;43.58;;;;;;;6.45;59.98;94654.19;4990785;28;20723;-76
2022/12/29 11:21:03;;;;;;;54.35;40.70;;;;;;;7.00;58.57;94658.53;4989069;28;20088;-76
2022/12/29 11:23:40;;;;;;;68.03;45.47;;;;;;;7.24;57.19;94639.13;4990252;28;20025;-75
2022/12/29 11:26:13;;;;;;;63.50;40.88;;;;;;;7.67;56.38;94660.66;4982375;28;20422;-76
2022/12/29 11:28:42;;;;;;;62.40;43.33;;;;;;;8.02;56.14;94654.34;5000011;28;20046;-76
2022/12/29 11:31:08;;;;;;;61.65;43.50;;;;;;;8.10;54.41;94651.09;4988603;28;20473;-76
2022/12/29 11:33:36;;;;;;;60.05;40.20;;;;;;;8.31;54.07;94641.94;4988851;28;20032;-75
2022/12/29 11:36:06;;;;;;;63.33;41.67;;;;;;;8.55;53.89;94641.97;4990695;28;20512;-74
2022/12/29 11:38:53;;;;;;;51.10;39.63;;;;;;;8.25;52.97;94616.53;4987269;28;20041;-74
2022/12/29 11:41:28;;;;;;;61.38;41.95;;;;;;;8.41;53.02;94636.53;5005712;28;20512;-74
2022/12/29 11:43:57;;;;;;;56.45;40.10;;;;;;;8.70;52.76;94641.84;4984152;28;20120;-76
2022/12/29 11:46:30;;;;;;;53.97;39.67;;;;;;;8.20;52.93;94605.19;4989634;28;20037;-76
2022/12/29 11:48:58;;;;;;;62.30;41.15;;;;;;;8.35;53.24;94636.88;4983188;28;20397;-76
2022/12/29 11:51:27;;;;;;;55.38;40.65;;;;;;;8.51;53.04;94633.78;4991039;28;20017;-75
2022/12/29 11:53:57;;;;;;;57.28;40.65;;;;;;;8.34;52.97;94636.06;4988886;28;20049;-75
2022/12/29 11:56:35;;;;;;;55.75;40.50;;;;;;;8.70;53.02;94638.38;4992180;28;20038;-75
2022/12/29 11:59:38;;;;;;;54.20;41.92;;;;;;;8.86;52.33;94637.13;4986501;28;20041;-74
2022/12/29 12:02:43;;;;;;;53.63;37.53;;;;;;;9.13;51.72;94636.63;4989450;28;20042;-74
2022/12/29 12:05:19;;;;;;;55.67;37.95;;;;;;;9.21;52.03;94633.31;4983992;28;20038;-74
2022/12/29 12:07:56;;;;;;;52.85;36.35;;;;;;;9.37;51.37;94621.44;4990225;28;20033;-75
2022/12/29 12:10:31;;;;;;;59.63;38.80;;;;;;;9.45;51.79;94623.47;4988692;28;20049;-76
2022/12/29 12:13:17;;;;;;;58.50;40.80;;;;;;;9.47;50.72;94615.22;4988792;28;20026;-75
2022/12/29 12:15:59;;;;;;;;;;;;;;;9.36;50.59;94623.31;4991322;28;20050;-75
2022/12/29 12:18:47;;;;;;;62.70;40.38;;;;;;;9.14;51.00;94623.06;4968667;28;20470;-75